createdAt,value
2018-06-18T00:02:02.656Z,64.20
2018-06-18T00:04:29.840Z,64.00
2018-06-18T00:06:57.009Z,64.20
2018-06-18T00:09:24.232Z,64.10
2018-06-18T00:11:51.391Z,63.80
2018-06-18T00:14:18.580Z,63.20
2018-06-18T00:16:45.798Z,63.10
2018-06-18T00:19:12.954Z,64.30
2018-06-18T00:21:40.103Z,64.10
2018-06-18T00:24:07.269Z,64.20
2018-06-18T00:26:34.419Z,64.60
2018-06-18T00:29:01.646Z,64.20
2018-06-18T00:31:28.800Z,64.00
2018-06-18T00:33:55.983Z,64.20
2018-06-18T00:36:23.146Z,64.40
2018-06-18T00:38:50.315Z,64.40
2018-06-18T00:41:17.464Z,64.70
2018-06-18T00:43:44.640Z,65.10
2018-06-18T00:46:11.880Z,64.90
2018-06-18T00:48:39.023Z,64.80
2018-06-18T00:51:06.212Z,65.10
2018-06-18T00:53:33.368Z,65.50
2018-06-18T00:56:07.628Z,64.90
2018-06-18T00:58:34.800Z,63.60
2018-06-18T01:01:02.000Z,63.10
2018-06-18T01:03:29.422Z,63.20
2018-06-18T01:05:56.595Z,64.50
2018-06-18T01:08:23.773Z,63.80
2018-06-18T01:10:50.934Z,64.10
2018-06-18T01:13:18.140Z,64.50
2018-06-18T01:15:45.451Z,65.00
2018-06-18T01:18:12.594Z,64.20
2018-06-18T01:20:39.751Z,63.50
2018-06-18T01:24:22.260Z,62.90
2018-06-18T01:26:49.422Z,62.50
2018-06-18T01:29:16.583Z,62.30
2018-06-18T01:31:43.755Z,61.30
2018-06-18T01:34:22.063Z,61.20
2018-06-18T01:36:49.263Z,61.20
2018-06-18T01:39:16.419Z,61.20
2018-06-18T01:41:43.920Z,61.30
2018-06-18T01:44:11.100Z,61.30
2018-06-18T01:46:38.308Z,61.90
2018-06-18T01:49:05.471Z,62.10
2018-06-18T01:51:32.635Z,63.20
2018-06-18T01:53:59.776Z,64.00
2018-06-18T01:56:26.958Z,65.20
2018-06-18T01:58:54.132Z,64.80
2018-06-18T02:01:21.279Z,64.00
2018-06-18T02:03:48.442Z,63.70
2018-06-18T02:06:15.631Z,64.20
2018-06-18T02:08:42.796Z,64.60
2018-06-18T02:11:09.966Z,64.50
2018-06-18T02:13:37.132Z,65.50
2018-06-18T02:16:04.335Z,65.10
2018-06-18T02:18:31.500Z,65.40
2018-06-18T02:20:58.668Z,65.50
2018-06-18T02:23:25.840Z,65.50
2018-06-18T02:25:53.003Z,65.20
2018-06-18T02:28:26.025Z,64.90
2018-06-18T02:30:58.800Z,66.00
2018-06-18T02:33:31.862Z,65.20
2018-06-18T02:36:04.864Z,65.50
2018-06-18T02:38:36.615Z,66.40
2018-06-18T02:41:04.223Z,66.30
2018-06-18T02:43:31.399Z,66.20
2018-06-18T02:45:58.577Z,66.20
2018-06-18T02:48:25.740Z,66.00
2018-06-18T02:50:52.908Z,66.30
2018-06-18T02:53:20.075Z,66.40
2018-06-18T02:55:48.840Z,66.50
2018-06-18T02:58:16.058Z,66.70
2018-06-18T03:00:43.224Z,66.30
2018-06-18T03:03:10.423Z,66.00
2018-06-18T03:05:37.578Z,66.00
2018-06-18T03:08:04.804Z,66.00
2018-06-18T03:10:31.975Z,66.60
2018-06-18T03:12:59.148Z,67.10
2018-06-18T03:15:26.312Z,67.80
2018-06-18T03:20:26.272Z,67.60
2018-06-18T03:22:59.247Z,67.40
2018-06-18T03:25:32.277Z,67.20
2018-06-18T03:28:05.135Z,67.40
2018-06-18T03:30:32.356Z,68.00
2018-06-18T03:32:59.524Z,68.20
2018-06-18T03:35:26.695Z,67.80
2018-06-18T03:37:54.860Z,67.60
2018-06-18T03:40:22.025Z,68.10
2018-06-18T03:42:49.188Z,67.70
2018-06-18T03:45:21.795Z,67.60
2018-06-18T03:47:48.948Z,67.20
2018-06-18T03:50:16.148Z,67.40
2018-06-18T03:52:43.296Z,67.20
2018-06-18T03:55:15.571Z,67.80
2018-06-18T03:57:42.739Z,67.70
2018-06-18T04:00:10.076Z,67.90
2018-06-18T04:02:53.052Z,67.80
2018-06-18T04:05:25.960Z,67.70
2018-06-18T04:07:57.302Z,67.80
2018-06-18T04:11:34.552Z,67.90
2018-06-18T04:14:01.749Z,67.50
2018-06-18T04:16:28.971Z,67.30
2018-06-18T04:18:56.124Z,67.70
2018-06-18T04:21:23.291Z,68.20
2018-06-18T04:26:17.656Z,67.40
2018-06-18T04:28:44.807Z,68.00
2018-06-18T04:31:11.972Z,67.70
2018-06-18T04:33:46.200Z,66.80
2018-06-18T04:36:13.367Z,67.40
2018-06-18T04:38:40.515Z,68.20
2018-06-18T04:41:07.680Z,69.40
2018-06-18T04:43:40.655Z,69.90
2018-06-18T04:46:13.663Z,69.50
2018-06-18T04:48:46.640Z,68.10
2018-06-18T04:51:13.896Z,68.40
2018-06-18T04:53:41.047Z,69.00
2018-06-18T04:56:08.207Z,68.50
2018-06-18T04:58:35.379Z,68.30
2018-06-18T05:01:11.616Z,68.90
2018-06-18T05:03:38.771Z,68.90
2018-06-18T05:06:05.967Z,68.90
2018-06-18T05:10:43.895Z,70.80
2018-06-18T05:13:11.040Z,72.40
2018-06-18T05:15:39.428Z,72.20
2018-06-18T05:18:07.011Z,72.00
2018-06-18T05:20:34.338Z,71.40
2018-06-18T05:23:01.483Z,71.70
2018-06-18T05:25:29.927Z,71.20
2018-06-18T05:27:57.087Z,70.90
2018-06-18T05:30:27.860Z,71.60
2018-06-18T05:32:55.200Z,71.40
2018-06-18T05:35:22.380Z,70.10
2018-06-18T05:38:12.929Z,70.80
2018-06-18T05:40:40.088Z,71.00
2018-06-18T05:43:07.250Z,70.10
2018-06-18T05:45:34.404Z,67.10
2018-06-18T05:48:01.595Z,67.20
2018-06-18T05:50:28.799Z,67.30
2018-06-18T05:52:55.913Z,65.50
2018-06-18T05:57:50.339Z,65.30
2018-06-18T06:00:17.756Z,64.40
2018-06-18T06:02:45.293Z,65.30
2018-06-18T06:05:12.599Z,65.10
2018-06-18T06:07:39.908Z,64.00
2018-06-18T06:10:07.156Z,64.30
2018-06-18T06:12:34.328Z,64.00
2018-06-18T06:15:01.526Z,64.10
2018-06-18T06:17:28.739Z,64.80
2018-06-18T06:19:55.920Z,65.80
2018-06-18T06:22:23.113Z,65.30
2018-06-18T06:24:50.297Z,64.40
2018-06-18T06:27:17.493Z,62.20
2018-06-18T06:29:44.651Z,62.60
2018-06-18T06:32:11.916Z,64.30
2018-06-18T06:34:40.195Z,64.00
2018-06-18T06:37:07.408Z,63.60
2018-06-18T06:39:34.567Z,61.20
2018-06-18T06:42:07.503Z,60.70
2018-06-18T06:44:34.645Z,61.60
2018-06-18T06:47:01.817Z,60.00
2018-06-18T06:49:29.115Z,61.00
2018-06-18T06:51:56.264Z,58.40
2018-06-18T06:54:23.428Z,60.00
2018-06-18T06:56:50.571Z,59.30
2018-06-18T06:59:17.849Z,59.30
2018-06-18T07:01:45.004Z,59.20
2018-06-18T07:04:12.283Z,58.90
2018-06-18T07:06:39.459Z,59.50
2018-06-18T07:09:08.631Z,59.70
2018-06-18T07:11:36.000Z,58.60
2018-06-18T07:14:03.284Z,58.30
2018-06-18T07:16:30.450Z,56.30
2018-06-18T07:18:57.624Z,55.40
2018-06-18T07:21:24.863Z,53.60
2018-06-18T07:26:25.907Z,53.20
2018-06-18T07:28:53.074Z,54.50
2018-06-18T07:31:20.219Z,52.50
2018-06-18T07:33:47.395Z,50.30
2018-06-18T07:36:14.564Z,49.10
2018-06-18T07:38:41.748Z,46.70
2018-06-18T07:41:08.932Z,46.20
2018-06-18T07:43:36.104Z,47.00
2018-06-18T07:46:03.256Z,46.30
2018-06-18T07:48:30.427Z,46.10
2018-06-18T07:50:57.627Z,44.20
2018-06-18T07:53:24.775Z,43.00
2018-06-18T07:55:51.939Z,41.60
2018-06-18T07:58:19.079Z,44.50
2018-06-18T08:00:46.355Z,44.50
2018-06-18T08:03:13.511Z,45.30
2018-06-18T08:05:40.847Z,47.80
2018-06-18T08:08:08.000Z,47.60
2018-06-18T08:10:35.194Z,47.70
2018-06-18T08:15:29.525Z,48.50
2018-06-18T08:17:56.676Z,48.90
2018-06-18T08:22:51.007Z,48.40
2018-06-18T08:25:18.173Z,47.90
2018-06-18T08:27:45.344Z,46.70
2018-06-18T08:30:12.504Z,46.60
2018-06-18T08:32:39.663Z,45.80
2018-06-18T08:35:06.840Z,44.50
2018-06-18T08:37:33.988Z,43.90
2018-06-18T08:40:01.308Z,44.80
2018-06-18T08:42:28.503Z,43.90
2018-06-18T08:44:55.663Z,45.00
2018-06-18T08:47:22.825Z,45.10
2018-06-18T08:49:55.739Z,46.80
2018-06-18T08:52:28.788Z,45.40
2018-06-18T08:55:01.864Z,49.40
2018-06-18T08:57:34.940Z,50.10
2018-06-18T09:00:07.852Z,45.40
2018-06-18T09:02:35.012Z,44.00
2018-06-18T09:05:07.856Z,45.10
2018-06-18T09:07:40.680Z,44.20
2018-06-18T09:10:07.876Z,46.40
2018-06-18T09:12:35.255Z,48.40
2018-06-18T09:15:02.440Z,46.50
2018-06-18T09:17:29.697Z,47.50
2018-06-18T09:19:56.871Z,46.50
2018-06-18T09:22:24.032Z,47.80
2018-06-18T09:24:51.196Z,43.70
2018-06-18T09:27:18.388Z,45.20
2018-06-18T09:29:51.235Z,43.10
2018-06-18T09:32:18.457Z,40.80
2018-06-18T09:34:45.588Z,42.50
2018-06-18T09:37:12.756Z,44.10
2018-06-18T09:39:39.920Z,40.60
2018-06-18T09:42:07.100Z,43.20
2018-06-18T09:47:01.428Z,46.30
2018-06-18T09:49:34.236Z,45.90
2018-06-18T09:52:07.339Z,45.20
2018-06-18T09:54:40.295Z,45.10
2018-06-18T09:57:29.332Z,45.40
2018-06-18T10:00:13.635Z,45.60
2018-06-18T10:02:40.832Z,41.70
2018-06-18T10:05:08.031Z,43.30
2018-06-18T10:07:35.340Z,43.20
2018-06-18T10:10:02.528Z,40.80
2018-06-18T10:12:29.708Z,42.50
2018-06-18T10:14:56.884Z,42.40
2018-06-18T10:17:24.048Z,43.70
2018-06-18T10:19:51.812Z,42.30
2018-06-18T10:22:18.985Z,44.10
2018-06-18T10:24:46.139Z,45.70
2018-06-18T10:27:13.545Z,46.40
2018-06-18T10:29:40.691Z,45.00
2018-06-18T10:32:13.663Z,44.80
2018-06-18T10:34:46.487Z,47.00
2018-06-18T10:37:19.364Z,44.90
2018-06-18T10:39:52.319Z,46.00
2018-06-18T10:42:25.167Z,45.00
2018-06-18T10:44:52.327Z,45.10
2018-06-18T10:47:19.472Z,41.90
2018-06-18T10:49:46.636Z,42.00
2018-06-18T10:52:13.793Z,44.90
2018-06-18T10:54:40.955Z,40.80
2018-06-18T10:57:08.160Z,42.50
2018-06-18T10:59:35.280Z,43.90
2018-06-18T11:02:02.432Z,42.60
2018-06-18T11:04:30.485Z,44.90
2018-06-18T11:06:57.856Z,43.30
2018-06-18T11:09:25.011Z,42.50
2018-06-18T11:11:52.208Z,43.10
2018-06-18T11:14:19.391Z,43.30
2018-06-18T11:16:52.601Z,45.60
2018-06-18T11:19:25.316Z,48.20
2018-06-18T11:21:58.403Z,47.20
2018-06-18T11:24:31.200Z,50.20
2018-06-18T11:26:58.745Z,49.30
2018-06-18T11:29:25.816Z,45.30
2018-06-18T11:31:53.004Z,47.90
2018-06-18T11:34:20.156Z,46.40
2018-06-18T11:36:47.378Z,48.90
2018-06-18T11:39:14.610Z,45.50
2018-06-18T11:41:41.777Z,45.60
2018-06-18T11:44:08.915Z,48.70
2018-06-18T11:46:36.083Z,48.40
2018-06-18T11:49:03.292Z,51.10
2018-06-18T11:51:30.823Z,50.30
2018-06-18T11:53:57.996Z,47.60
2018-06-18T11:56:25.203Z,46.30
2018-06-18T11:58:58.136Z,45.70
2018-06-18T12:01:31.046Z,48.70
2018-06-18T12:04:04.063Z,48.40
2018-06-18T12:06:37.040Z,47.40
2018-06-18T12:09:12.448Z,46.00
2018-06-18T12:11:39.827Z,46.00
2018-06-18T12:14:07.016Z,46.90
2018-06-18T12:16:35.483Z,48.20
2018-06-18T12:19:03.208Z,49.10
2018-06-18T12:21:30.403Z,47.60
2018-06-18T12:23:57.575Z,47.80
2018-06-18T12:26:24.759Z,46.80
2018-06-18T12:28:51.920Z,47.60
2018-06-18T12:31:19.148Z,48.40
2018-06-18T12:33:46.292Z,47.00
2018-06-18T12:36:13.463Z,47.20
2018-06-18T12:38:40.624Z,47.70
2018-06-18T12:41:08.367Z,48.10
2018-06-18T12:43:37.595Z,51.90
2018-06-18T12:46:10.491Z,52.40
2018-06-18T12:49:44.215Z,48.70
2018-06-18T12:52:17.083Z,47.30
2018-06-18T12:55:50.707Z,46.20
2018-06-18T12:58:17.874Z,46.80
2018-06-18T13:00:45.064Z,48.90
2018-06-18T13:03:13.742Z,45.80
2018-06-18T13:05:40.924Z,43.40
2018-06-18T13:08:08.118Z,45.80
2018-06-18T13:10:35.395Z,47.60
2018-06-18T13:13:02.576Z,45.50
2018-06-18T13:15:29.923Z,44.50
2018-06-18T13:17:57.181Z,46.30
2018-06-18T13:20:24.461Z,49.10
2018-06-18T13:22:51.577Z,46.00
2018-06-18T13:25:18.836Z,49.30
2018-06-18T13:27:51.699Z,49.30
2018-06-18T13:30:19.140Z,49.70
2018-06-18T13:32:46.303Z,48.00
2018-06-18T13:35:13.515Z,49.00
2018-06-18T13:37:46.492Z,48.10
2018-06-18T13:40:19.456Z,48.00
2018-06-18T13:42:52.423Z,49.10
2018-06-18T13:45:25.424Z,49.00
2018-06-18T13:47:58.356Z,51.40
2018-06-18T13:50:25.539Z,50.20
2018-06-18T13:52:52.750Z,51.60
2018-06-18T13:55:19.897Z,50.70
2018-06-18T13:57:47.778Z,51.00
2018-06-18T14:00:14.948Z,49.40
2018-06-18T14:02:42.116Z,47.40
2018-06-18T14:05:09.307Z,48.10
2018-06-18T14:10:10.488Z,51.20
2018-06-18T14:12:37.665Z,51.30
2018-06-18T14:15:04.868Z,48.80
2018-06-18T14:17:32.036Z,49.90
2018-06-18T14:20:04.889Z,50.30
2018-06-18T14:22:32.156Z,49.70
2018-06-18T14:24:59.592Z,48.90
2018-06-18T14:27:26.771Z,48.70
2018-06-18T14:29:59.676Z,48.50
2018-06-18T14:32:32.713Z,50.40
2018-06-18T14:35:05.615Z,49.60
2018-06-18T14:37:40.611Z,51.80
2018-06-18T14:42:34.529Z,50.40
2018-06-18T14:45:01.760Z,50.20
2018-06-18T14:47:28.975Z,50.20
2018-06-18T14:49:56.113Z,48.70
2018-06-18T14:52:23.445Z,48.00
2018-06-18T14:54:50.557Z,48.70
2018-06-18T14:57:17.820Z,48.00
2018-06-18T14:59:54.701Z,48.30
2018-06-18T15:02:21.884Z,50.40
2018-06-18T15:04:49.135Z,51.40
2018-06-18T15:07:16.466Z,51.20
2018-06-18T15:09:43.636Z,48.50
2018-06-18T15:12:11.850Z,49.40
2018-06-18T15:14:39.079Z,50.60
2018-06-18T15:17:06.274Z,50.30
2018-06-18T15:19:33.424Z,49.50
2018-06-18T15:22:00.695Z,52.40
2018-06-18T15:24:50.259Z,51.30
2018-06-18T15:27:17.806Z,50.50
2018-06-18T15:29:44.903Z,49.30
2018-06-18T15:32:12.149Z,49.90
2018-06-18T15:34:39.292Z,49.90
2018-06-18T15:37:06.516Z,51.30
2018-06-18T15:39:33.691Z,50.20
2018-06-18T15:42:00.927Z,49.70
2018-06-18T15:44:28.082Z,51.10
2018-06-18T15:46:55.463Z,51.10
2018-06-18T15:49:22.615Z,51.60
2018-06-18T15:51:49.855Z,50.60
2018-06-18T15:54:17.020Z,50.80
2018-06-18T15:56:44.251Z,52.80
2018-06-18T15:59:11.479Z,52.00
2018-06-18T16:01:38.827Z,50.10
2018-06-18T16:04:06.123Z,50.60
2018-06-18T16:06:33.407Z,51.00
2018-06-18T16:09:00.614Z,51.30
2018-06-18T16:11:28.117Z,51.80
2018-06-18T16:16:28.151Z,50.40
2018-06-18T16:18:55.423Z,49.70
2018-06-18T16:21:22.588Z,51.50
2018-06-18T16:23:49.747Z,52.90
2018-06-18T16:26:16.920Z,51.60
2018-06-18T16:28:44.110Z,52.40
2018-06-18T16:33:38.586Z,52.50
2018-06-18T16:36:05.820Z,52.40
2018-06-18T16:38:33.043Z,52.40
2018-06-18T16:43:27.444Z,53.10
2018-06-18T16:45:54.591Z,53.10
2018-06-18T16:48:21.808Z,54.60
2018-06-18T16:50:48.932Z,55.10
2018-06-18T16:53:16.133Z,53.00
2018-06-18T16:58:11.040Z,54.40
2018-06-18T17:00:38.216Z,55.20
2018-06-18T17:03:05.426Z,53.50
2018-06-18T17:05:32.667Z,54.40
2018-06-18T17:07:59.844Z,56.30
2018-06-18T17:10:26.988Z,55.50
2018-06-18T17:12:54.147Z,56.20
2018-06-18T17:15:21.432Z,55.20
2018-06-18T17:17:48.843Z,55.40
2018-06-18T17:20:16.595Z,55.10
2018-06-18T17:22:43.951Z,54.50
2018-06-18T17:25:11.748Z,54.00
2018-06-18T17:27:38.939Z,53.60
2018-06-18T17:30:06.117Z,52.80
2018-06-18T17:32:33.432Z,53.60
2018-06-18T17:35:00.619Z,54.40
2018-06-18T17:37:27.873Z,55.20
2018-06-18T17:39:55.036Z,54.60
2018-06-18T17:42:22.207Z,55.40
2018-06-18T17:44:49.372Z,54.80
2018-06-18T17:47:17.697Z,54.90
2018-06-18T17:49:44.977Z,55.20
2018-06-18T17:52:12.215Z,55.90
2018-06-18T17:54:39.444Z,57.30
2018-06-18T17:57:07.316Z,54.80
2018-06-18T17:59:34.517Z,55.00
2018-06-18T18:02:01.668Z,54.30
2018-06-18T18:04:29.003Z,54.70
2018-06-18T18:06:56.283Z,55.40
2018-06-18T18:09:23.458Z,55.50
2018-06-18T18:11:50.645Z,55.20
2018-06-18T18:14:17.808Z,56.50
2018-06-18T18:16:45.003Z,56.00
2018-06-18T18:19:12.211Z,56.60
2018-06-18T18:21:39.471Z,57.10
2018-06-18T18:24:06.671Z,57.30
2018-06-18T18:26:33.887Z,57.30
2018-06-18T18:29:01.060Z,57.20
2018-06-18T18:31:28.240Z,57.90
2018-06-18T18:33:55.448Z,57.30
2018-06-18T18:36:22.611Z,58.30
2018-06-18T18:38:49.788Z,57.70
2018-06-18T18:41:16.943Z,57.90
2018-06-18T18:43:44.139Z,57.80
2018-06-18T18:46:11.321Z,57.30
2018-06-18T18:48:38.555Z,58.00
2018-06-18T18:51:05.781Z,57.70
2018-06-18T18:53:32.993Z,58.40
2018-06-18T18:56:11.880Z,59.30
2018-06-18T18:59:44.711Z,58.70
2018-06-18T19:02:12.013Z,58.90
2018-06-18T19:04:56.332Z,58.70
2018-06-18T19:07:28.808Z,59.40
2018-06-18T19:10:24.827Z,59.30
2018-06-18T19:12:54.036Z,59.00
2018-06-18T19:15:21.639Z,59.30
2018-06-18T19:17:48.847Z,59.20
2018-06-18T19:20:19.251Z,59.70
2018-06-18T19:22:46.440Z,59.90
2018-06-18T19:25:13.672Z,59.80
2018-06-18T19:27:40.815Z,60.80
2018-06-18T19:30:08.812Z,60.60
2018-06-18T19:32:36.060Z,60.80
2018-06-18T19:35:03.259Z,61.20
2018-06-18T19:37:30.432Z,61.40
2018-06-18T19:39:57.659Z,61.00
2018-06-18T19:42:24.819Z,60.60
2018-06-18T19:44:51.955Z,60.90
2018-06-18T19:47:23.347Z,60.70
2018-06-18T19:49:50.620Z,60.70
2018-06-18T19:52:18.079Z,60.20
2018-06-18T19:54:48.174Z,60.30
2018-06-18T19:57:15.451Z,60.00
2018-06-18T19:59:42.624Z,61.10
2018-06-18T20:02:09.817Z,60.90
2018-06-18T20:04:37.000Z,61.80
2018-06-18T20:09:31.379Z,62.00
2018-06-18T20:11:58.561Z,62.00
2018-06-18T20:14:25.853Z,62.30
2018-06-18T20:16:53.033Z,62.30
2018-06-18T20:19:20.199Z,62.30
2018-06-18T20:21:47.776Z,62.40
2018-06-18T20:24:14.932Z,62.50
2018-06-18T20:26:42.112Z,62.30
2018-06-18T20:29:09.261Z,62.30
2018-06-18T20:31:36.472Z,62.20
2018-06-18T20:34:03.648Z,61.80
2018-06-18T20:36:30.832Z,62.30
2018-06-18T20:38:57.984Z,62.60
2018-06-18T20:41:25.240Z,62.40
2018-06-18T20:44:04.552Z,62.60
2018-06-18T20:46:31.761Z,62.60
2018-06-18T20:48:58.915Z,63.10
2018-06-18T20:51:26.248Z,63.60
2018-06-18T20:53:53.391Z,63.20
2018-06-18T20:56:20.552Z,63.60
2018-06-18T20:58:47.879Z,64.10
2018-06-18T21:01:15.037Z,64.30
2018-06-18T21:03:42.208Z,64.50
2018-06-18T21:06:09.364Z,65.00
2018-06-18T21:08:36.525Z,65.20
2018-06-18T21:11:03.813Z,64.90
2018-06-18T21:16:04.968Z,65.60
2018-06-18T21:18:32.163Z,66.00
2018-06-18T21:20:59.312Z,66.50
2018-06-18T21:23:26.488Z,66.50
2018-06-18T21:25:53.635Z,66.60
2018-06-18T21:28:20.829Z,66.50
2018-06-18T21:30:48.205Z,66.80
2018-06-18T21:33:15.368Z,66.70
2018-06-18T21:35:42.527Z,67.00
2018-06-18T21:38:09.718Z,66.90
2018-06-18T21:40:36.875Z,66.80
2018-06-18T21:43:04.295Z,66.60
2018-06-18T21:45:31.456Z,67.10
2018-06-18T21:47:58.790Z,67.00
2018-06-18T21:50:25.986Z,67.30
2018-06-18T21:52:53.248Z,67.20
2018-06-18T21:55:20.409Z,67.50
2018-06-18T21:57:47.611Z,67.50
2018-06-18T22:00:21.401Z,67.60
2018-06-18T22:02:48.891Z,68.00
2018-06-18T22:05:16.080Z,68.00
2018-06-18T22:07:44.029Z,68.50
2018-06-18T22:10:11.523Z,69.10
2018-06-18T22:12:38.716Z,68.50
2018-06-18T22:15:06.572Z,68.70
2018-06-18T22:17:33.716Z,68.70
2018-06-18T22:20:00.916Z,70.10
2018-06-18T22:22:28.088Z,69.40
2018-06-18T22:24:55.285Z,69.50
2018-06-18T22:27:22.507Z,69.20
2018-06-18T22:29:49.676Z,69.50
2018-06-18T22:32:16.843Z,69.40
2018-06-18T22:34:44.048Z,70.00
2018-06-18T22:37:11.235Z,69.90
2018-06-18T22:39:38.499Z,70.00
2018-06-18T22:44:39.656Z,70.40
2018-06-18T22:47:07.215Z,69.90
2018-06-18T22:49:34.411Z,69.60
2018-06-18T22:52:01.593Z,69.70
2018-06-18T22:54:28.785Z,69.60
2018-06-18T22:56:55.955Z,69.80
2018-06-18T22:59:23.192Z,70.20
2018-06-18T23:01:50.567Z,70.60
2018-06-18T23:04:17.727Z,70.40
2018-06-18T23:06:44.920Z,70.40
2018-06-18T23:09:12.109Z,70.60
2018-06-18T23:11:39.444Z,70.60
2018-06-18T23:14:09.392Z,70.60
2018-06-18T23:16:36.751Z,70.50
2018-06-18T23:19:03.984Z,70.00
2018-06-18T23:21:31.164Z,69.70
2018-06-18T23:23:58.348Z,70.00
2018-06-18T23:26:25.547Z,70.00
2018-06-18T23:31:21.279Z,70.20
2018-06-18T23:33:48.446Z,70.60
2018-06-18T23:36:15.632Z,70.50
2018-06-18T23:38:42.820Z,70.80
2018-06-18T23:41:10.035Z,71.00
2018-06-18T23:43:37.200Z,71.10
2018-06-18T23:46:04.603Z,72.00
2018-06-18T23:48:31.820Z,71.70
2018-06-18T23:50:59.032Z,71.30
2018-06-18T23:53:26.219Z,71.50
2018-06-18T23:55:53.428Z,71.40
